WZZ69 EPWA-LBBG
Flight info
| Callsign | WZZ69 |
|---|---|
| Flight time | N/A |
| Altitude | 38000 |
| Route | XIMBA N195 VENES M857 PODAN/N0428F390 DCT KENIN DCT KARIL DCT UBOGU DCT BULEN L742 ESENA |
| Aircraft | A20N/M-SDE1E2E3FGIJ1J4RWXY/LB1 |
Departure
| Time | N/A |
|---|---|
| Airport | Warsaw Chopin Airport (EPWA) |
Arrival
| Time | 2026-05-04 21:16 |
|---|---|
| Airport | Burgas Airport (LBBG) |
| Time | Latitude | Longitude | Altitude | Speed | Heading |
|---|---|---|---|---|---|
| 2026-05-04 19:58 | 49.90714 | 21.26422 | 38975 ft | 446 kts | 168° |
| 2026-05-04 19:58 | 49.87695 | 21.27501 | 38976 ft | 446 kts | 168° |
| 2026-05-04 19:59 | 49.81646 | 21.29658 | 38979 ft | 446 kts | 168° |
| 2026-05-04 19:59 | 49.76613 | 21.31447 | 38969 ft | 446 kts | 168° |
| 2026-05-04 20:00 | 49.64402 | 21.35776 | 38990 ft | 448 kts | 168° |
| 2026-05-04 20:01 | 49.58326 | 21.37921 | 39005 ft | 449 kts | 168° |
| 2026-05-04 20:01 | 49.52234 | 21.40066 | 39003 ft | 449 kts | 168° |
| 2026-05-04 20:02 | 49.46131 | 21.42212 | 39017 ft | 450 kts | 168° |
| 2026-05-04 20:02 | 49.40034 | 21.44465 | 39030 ft | 451 kts | 164° |
| 2026-05-04 20:03 | 49.34024 | 21.47320 | 39030 ft | 452 kts | 163° |
| 2026-05-04 20:03 | 49.28003 | 21.50189 | 39036 ft | 453 kts | 163° |
| 2026-05-04 20:04 | 49.21973 | 21.53037 | 39042 ft | 454 kts | 163° |
| 2026-05-04 20:04 | 49.15937 | 21.55875 | 39047 ft | 454 kts | 164° |
| 2026-05-04 20:05 | 49.09899 | 21.58707 | 39039 ft | 452 kts | 164° |
| 2026-05-04 20:05 | 49.03890 | 21.61518 | 39036 ft | 452 kts | 164° |
| 2026-05-04 20:06 | 48.97863 | 21.64330 | 39035 ft | 454 kts | 163° |
| 2026-05-04 20:06 | 48.91829 | 21.67138 | 39040 ft | 453 kts | 163° |
| 2026-05-04 20:07 | 48.85797 | 21.69939 | 39046 ft | 453 kts | 163° |
| 2026-05-04 20:07 | 48.79764 | 21.72733 | 39045 ft | 453 kts | 163° |
| 2026-05-04 20:08 | 48.73725 | 21.75522 | 39041 ft | 453 kts | 163° |
| 2026-05-04 20:08 | 48.67691 | 21.78303 | 39045 ft | 454 kts | 163° |
| 2026-05-04 20:09 | 48.61643 | 21.81083 | 39042 ft | 454 kts | 163° |
| 2026-05-04 20:09 | 48.55603 | 21.83852 | 39046 ft | 454 kts | 163° |
| 2026-05-04 20:10 | 48.49734 | 21.87288 | 39042 ft | 454 kts | 149° |
| 2026-05-04 20:10 | 48.44447 | 21.92508 | 39039 ft | 455 kts | 146° |
| 2026-05-04 20:11 | 48.39129 | 21.97670 | 39045 ft | 455 kts | 148° |
| 2026-05-04 20:11 | 48.33733 | 22.02653 | 39041 ft | 456 kts | 148° |
| 2026-05-04 20:12 | 48.28344 | 22.07563 | 39043 ft | 456 kts | 149° |
| 2026-05-04 20:12 | 48.22914 | 22.12497 | 39047 ft | 457 kts | 149° |
| 2026-05-04 20:13 | 48.17472 | 22.17428 | 39050 ft | 457 kts | 149° |
| 2026-05-04 20:13 | 48.12025 | 22.22350 | 39059 ft | 458 kts | 149° |
| 2026-05-04 20:14 | 48.06569 | 22.27267 | 39055 ft | 458 kts | 148° |
| 2026-05-04 20:14 | 48.01102 | 22.32182 | 39059 ft | 459 kts | 148° |
| 2026-05-04 20:15 | 47.95630 | 22.37089 | 39059 ft | 459 kts | 149° |
| 2026-05-04 20:15 | 47.90151 | 22.41992 | 39067 ft | 459 kts | 149° |
| 2026-05-04 20:16 | 47.84668 | 22.46884 | 39068 ft | 460 kts | 149° |
| 2026-05-04 20:16 | 47.79180 | 22.51769 | 39079 ft | 460 kts | 149° |
| 2026-05-04 20:17 | 47.73689 | 22.56644 | 39082 ft | 460 kts | 149° |
| 2026-05-04 20:17 | 47.68199 | 22.61508 | 39079 ft | 459 kts | 149° |
| 2026-05-04 20:18 | 47.62707 | 22.66360 | 39081 ft | 459 kts | 149° |
| 2026-05-04 20:18 | 47.57216 | 22.71199 | 39079 ft | 459 kts | 149° |
| 2026-05-04 20:19 | 47.51725 | 22.76026 | 39085 ft | 459 kts | 149° |
| 2026-05-04 20:19 | 47.46238 | 22.80838 | 39086 ft | 458 kts | 149° |
| 2026-05-04 20:20 | 47.40756 | 22.85635 | 39080 ft | 458 kts | 149° |
| 2026-05-04 20:20 | 47.35272 | 22.90421 | 39086 ft | 458 kts | 149° |
| 2026-05-04 20:21 | 47.29791 | 22.95193 | 39084 ft | 458 kts | 149° |
| 2026-05-04 20:21 | 47.21603 | 23.02299 | 39095 ft | 457 kts | 149° |
| 2026-05-04 20:22 | 47.16121 | 23.07044 | 39094 ft | 457 kts | 149° |
| 2026-05-04 20:22 | 47.10635 | 23.11779 | 39090 ft | 457 kts | 149° |
| 2026-05-04 20:23 | 47.05146 | 23.16505 | 39092 ft | 458 kts | 149° |
| 2026-05-04 20:23 | 46.99654 | 23.21224 | 39099 ft | 458 kts | 149° |
| 2026-05-04 20:24 | 46.94150 | 23.25941 | 39100 ft | 458 kts | 149° |
| 2026-05-04 20:24 | 46.88642 | 23.30650 | 39106 ft | 459 kts | 149° |
| 2026-05-04 20:25 | 46.83126 | 23.35355 | 39100 ft | 459 kts | 149° |
| 2026-05-04 20:25 | 46.77603 | 23.40054 | 39113 ft | 460 kts | 149° |
| 2026-05-04 20:26 | 46.72074 | 23.44747 | 39084 ft | 460 kts | 149° |
| 2026-05-04 20:26 | 46.66538 | 23.49435 | 39085 ft | 460 kts | 149° |
| 2026-05-04 20:27 | 46.60997 | 23.54116 | 39089 ft | 461 kts | 149° |
| 2026-05-04 20:27 | 46.55451 | 23.58790 | 39105 ft | 461 kts | 149° |
| 2026-05-04 20:28 | 46.49902 | 23.63455 | 39104 ft | 461 kts | 149° |
| 2026-05-04 20:28 | 46.44350 | 23.68111 | 39091 ft | 461 kts | 149° |
| 2026-05-04 20:29 | 46.38789 | 23.72765 | 39097 ft | 461 kts | 149° |
| 2026-05-04 20:29 | 46.33229 | 23.77406 | 39085 ft | 461 kts | 149° |
| 2026-05-04 20:30 | 46.27668 | 23.82037 | 39091 ft | 461 kts | 149° |
| 2026-05-04 20:30 | 46.22103 | 23.86659 | 39082 ft | 461 kts | 149° |
| 2026-05-04 20:31 | 46.16537 | 23.91273 | 39083 ft | 461 kts | 149° |
| 2026-05-04 20:31 | 46.10968 | 23.95879 | 39084 ft | 461 kts | 149° |
| 2026-05-04 20:32 | 46.05398 | 24.00476 | 39097 ft | 461 kts | 150° |
| 2026-05-04 20:32 | 45.99829 | 24.05060 | 39101 ft | 461 kts | 150° |
| 2026-05-04 20:33 | 45.94257 | 24.09634 | 39105 ft | 461 kts | 150° |
| 2026-05-04 20:33 | 45.88687 | 24.14197 | 39106 ft | 461 kts | 150° |
| 2026-05-04 20:34 | 45.83157 | 24.18717 | 39108 ft | 461 kts | 150° |
| 2026-05-04 20:34 | 45.77584 | 24.23260 | 39099 ft | 461 kts | 150° |
| 2026-05-04 20:35 | 45.72009 | 24.27796 | 39102 ft | 461 kts | 150° |
| 2026-05-04 20:35 | 45.66432 | 24.32322 | 39102 ft | 461 kts | 150° |
| 2026-05-04 20:36 | 45.60853 | 24.36839 | 39111 ft | 461 kts | 150° |
| 2026-05-04 20:36 | 45.55268 | 24.41352 | 39106 ft | 461 kts | 150° |
| 2026-05-04 20:37 | 45.49681 | 24.45853 | 39101 ft | 461 kts | 149° |
| 2026-05-04 20:37 | 45.44091 | 24.50350 | 39098 ft | 461 kts | 149° |
| 2026-05-04 20:38 | 45.38497 | 24.54838 | 39099 ft | 461 kts | 149° |
| 2026-05-04 20:38 | 45.32900 | 24.59319 | 39095 ft | 462 kts | 150° |
| 2026-05-04 20:39 | 45.27296 | 24.63793 | 39103 ft | 462 kts | 149° |
| 2026-05-04 20:39 | 45.21683 | 24.68266 | 39100 ft | 463 kts | 149° |
| 2026-05-04 20:40 | 45.16065 | 24.72733 | 39106 ft | 463 kts | 149° |
| 2026-05-04 20:40 | 45.11394 | 24.76439 | 39097 ft | 463 kts | 150° |
| 2026-05-04 20:41 | 45.05764 | 24.80896 | 39101 ft | 464 kts | 150° |
| 2026-05-04 20:41 | 44.99215 | 24.86068 | 39097 ft | 464 kts | 150° |
| 2026-05-04 20:42 | 44.94492 | 24.89789 | 39091 ft | 464 kts | 150° |
| 2026-05-04 20:42 | 44.88851 | 24.94225 | 39092 ft | 464 kts | 150° |
| 2026-05-04 20:43 | 44.83209 | 24.98651 | 39084 ft | 464 kts | 150° |
| 2026-05-04 20:43 | 44.77572 | 25.03063 | 39084 ft | 464 kts | 150° |
| 2026-05-04 20:44 | 44.71975 | 25.07435 | 39078 ft | 463 kts | 150° |
| 2026-05-04 20:44 | 44.66339 | 25.11827 | 39065 ft | 463 kts | 150° |
| 2026-05-04 20:45 | 44.60666 | 25.16237 | 39061 ft | 463 kts | 150° |
| 2026-05-04 20:45 | 44.55035 | 25.20606 | 39061 ft | 463 kts | 150° |
| 2026-05-04 20:46 | 44.49441 | 25.24936 | 39057 ft | 462 kts | 150° |
| 2026-05-04 20:46 | 44.43810 | 25.29285 | 39052 ft | 462 kts | 150° |
| 2026-05-04 20:47 | 44.38183 | 25.33621 | 39060 ft | 462 kts | 150° |
| 2026-05-04 20:47 | 44.32557 | 25.37947 | 39056 ft | 462 kts | 150° |
| 2026-05-04 20:48 | 44.26928 | 25.42265 | 39066 ft | 462 kts | 150° |
| 2026-05-04 20:48 | 44.21300 | 25.46573 | 39050 ft | 461 kts | 150° |
| 2026-05-04 20:49 | 44.15672 | 25.50873 | 39047 ft | 461 kts | 150° |
| 2026-05-04 20:49 | 44.10040 | 25.55165 | 39049 ft | 461 kts | 150° |
| 2026-05-04 20:50 | 44.04407 | 25.59449 | 39049 ft | 462 kts | 150° |
| 2026-05-04 20:50 | 43.98771 | 25.63726 | 39047 ft | 462 kts | 150° |
| 2026-05-04 20:51 | 43.93131 | 25.67998 | 39058 ft | 462 kts | 150° |
| 2026-05-04 20:51 | 43.87487 | 25.72266 | 39051 ft | 462 kts | 150° |
| 2026-05-04 20:52 | 43.81840 | 25.76531 | 39050 ft | 462 kts | 149° |
| 2026-05-04 20:52 | 43.76559 | 25.81596 | 38800 ft | 463 kts | 141° |
| 2026-05-04 20:53 | 43.74004 | 25.84292 | 38549 ft | 461 kts | 141° |
| 2026-05-04 20:53 | 43.71443 | 25.86951 | 38200 ft | 461 kts | 142° |
| 2026-05-04 20:53 | 43.68854 | 25.89583 | 37524 ft | 463 kts | 143° |
| 2026-05-04 20:53 | 43.66245 | 25.92193 | 36848 ft | 463 kts | 143° |
| 2026-05-04 20:54 | 43.63636 | 25.94783 | 36174 ft | 461 kts | 143° |
| 2026-05-04 20:54 | 43.61028 | 25.97361 | 35424 ft | 462 kts | 143° |
| 2026-05-04 20:54 | 43.58414 | 25.99941 | 34683 ft | 463 kts | 144° |
| 2026-05-04 20:54 | 43.55793 | 26.02527 | 33852 ft | 465 kts | 144° |
| 2026-05-04 20:55 | 43.53163 | 26.05118 | 33067 ft | 464 kts | 144° |
| 2026-05-04 20:55 | 43.50540 | 26.07702 | 32250 ft | 464 kts | 144° |
| 2026-05-04 20:55 | 43.47916 | 26.10283 | 31432 ft | 464 kts | 144° |
| 2026-05-04 20:55 | 43.45283 | 26.12872 | 30420 ft | 468 kts | 144° |
| 2026-05-04 20:56 | 43.42608 | 26.15498 | 29072 ft | 477 kts | 144° |
| 2026-05-04 20:56 | 43.39895 | 26.18157 | 28003 ft | 479 kts | 144° |
| 2026-05-04 20:56 | 43.37193 | 26.20799 | 27314 ft | 473 kts | 144° |
| 2026-05-04 20:56 | 43.34580 | 26.23354 | 26922 ft | 460 kts | 143° |
| 2026-05-04 20:57 | 43.31973 | 26.25902 | 26467 ft | 450 kts | 143° |
| 2026-05-04 20:57 | 43.29468 | 26.28346 | 25889 ft | 444 kts | 143° |
| 2026-05-04 20:57 | 43.26929 | 26.30821 | 25303 ft | 439 kts | 143° |
| 2026-05-04 20:57 | 43.24483 | 26.33203 | 24709 ft | 435 kts | 143° |
| 2026-05-04 20:58 | 43.22021 | 26.35597 | 24149 ft | 431 kts | 143° |
| 2026-05-04 20:58 | 43.19583 | 26.37963 | 23527 ft | 428 kts | 142° |
| 2026-05-04 20:58 | 43.17167 | 26.40308 | 22949 ft | 423 kts | 142° |
| 2026-05-04 20:58 | 43.14785 | 26.42618 | 22385 ft | 417 kts | 142° |
| 2026-05-04 20:59 | 43.12433 | 26.44896 | 21831 ft | 412 kts | 142° |
| 2026-05-04 20:59 | 43.10110 | 26.47146 | 21274 ft | 407 kts | 142° |
| 2026-05-04 20:59 | 43.07813 | 26.49369 | 20726 ft | 402 kts | 142° |
| 2026-05-04 20:59 | 43.05536 | 26.51570 | 20176 ft | 398 kts | 142° |
| 2026-05-04 21:00 | 43.03284 | 26.53745 | 19633 ft | 395 kts | 142° |
| 2026-05-04 21:00 | 43.01052 | 26.55899 | 19091 ft | 391 kts | 142° |
| 2026-05-04 21:00 | 42.98838 | 26.58033 | 18556 ft | 388 kts | 142° |
| 2026-05-04 21:00 | 42.96634 | 26.60154 | 17949 ft | 386 kts | 141° |
| 2026-05-04 21:01 | 42.94455 | 26.62250 | 17429 ft | 381 kts | 141° |
| 2026-05-04 21:01 | 42.92299 | 26.64319 | 16898 ft | 377 kts | 141° |
| 2026-05-04 21:01 | 42.90168 | 26.66363 | 16372 ft | 373 kts | 141° |
| 2026-05-04 21:01 | 42.88059 | 26.68386 | 15856 ft | 369 kts | 141° |
| 2026-05-04 21:02 | 42.85972 | 26.70387 | 15339 ft | 366 kts | 140° |
| 2026-05-04 21:02 | 42.83899 | 26.72372 | 14828 ft | 363 kts | 140° |
| 2026-05-04 21:02 | 42.81839 | 26.74343 | 14317 ft | 361 kts | 140° |
| 2026-05-04 21:02 | 42.79792 | 26.76301 | 13804 ft | 359 kts | 140° |
| 2026-05-04 21:03 | 42.77758 | 26.78245 | 13278 ft | 355 kts | 140° |
| 2026-05-04 21:03 | 42.75745 | 26.80168 | 12780 ft | 352 kts | 140° |
| 2026-05-04 21:03 | 42.73753 | 26.82070 | 12287 ft | 348 kts | 140° |
| 2026-05-04 21:03 | 42.71778 | 26.83954 | 11799 ft | 345 kts | 140° |
| 2026-05-04 21:04 | 42.69818 | 26.85822 | 11308 ft | 343 kts | 140° |
| 2026-05-04 21:04 | 42.67871 | 26.87676 | 10828 ft | 341 kts | 140° |
| 2026-05-04 21:04 | 42.65939 | 26.89515 | 10415 ft | 336 kts | 140° |
| 2026-05-04 21:04 | 42.64056 | 26.91302 | 10276 ft | 323 kts | 140° |
| 2026-05-04 21:05 | 42.62244 | 26.93019 | 10046 ft | 314 kts | 140° |
| 2026-05-04 21:05 | 42.60470 | 26.94704 | 9781 ft | 307 kts | 140° |
| 2026-05-04 21:05 | 42.58725 | 26.96363 | 9610 ft | 309 kts | 140° |
| 2026-05-04 21:05 | 42.56948 | 26.98055 | 9229 ft | 314 kts | 140° |
| 2026-05-04 21:06 | 42.55161 | 26.99752 | 8826 ft | 311 kts | 140° |
| 2026-05-04 21:06 | 42.53405 | 27.01412 | 8453 ft | 306 kts | 140° |
| 2026-05-04 21:06 | 42.51662 | 27.03059 | 8059 ft | 304 kts | 140° |
| 2026-05-04 21:06 | 42.49932 | 27.04693 | 7676 ft | 302 kts | 140° |
| 2026-05-04 21:07 | 42.48236 | 27.06295 | 7300 ft | 299 kts | 140° |
| 2026-05-04 21:07 | 42.46536 | 27.07901 | 6921 ft | 297 kts | 140° |
| 2026-05-04 21:07 | 42.44843 | 27.09499 | 6538 ft | 296 kts | 140° |
| 2026-05-04 21:07 | 42.43160 | 27.11088 | 6153 ft | 294 kts | 140° |
| 2026-05-04 21:08 | 42.41490 | 27.12665 | 5773 ft | 292 kts | 141° |
| 2026-05-04 21:08 | 42.39895 | 27.14328 | 5402 ft | 286 kts | 132° |
| 2026-05-04 21:08 | 42.38517 | 27.16242 | 5049 ft | 283 kts | 130° |
| 2026-05-04 21:08 | 42.37154 | 27.18159 | 4665 ft | 281 kts | 129° |
| 2026-05-04 21:09 | 42.36154 | 27.20349 | 4300 ft | 270 kts | 103° |
| 2026-05-04 21:09 | 42.36037 | 27.22780 | 4052 ft | 255 kts | 74° |
| 2026-05-04 21:09 | 42.36772 | 27.24854 | 4001 ft | 238 kts | 47° |
| 2026-05-04 21:09 | 42.37912 | 27.26351 | 3997 ft | 221 kts | 41° |
| 2026-05-04 21:10 | 42.38990 | 27.27735 | 3996 ft | 206 kts | 41° |
| 2026-05-04 21:10 | 42.39992 | 27.29044 | 3962 ft | 198 kts | 41° |
| 2026-05-04 21:10 | 42.40991 | 27.30352 | 3873 ft | 199 kts | 42° |
| 2026-05-04 21:10 | 42.41974 | 27.31644 | 3743 ft | 192 kts | 42° |
| 2026-05-04 21:11 | 42.42907 | 27.32874 | 3636 ft | 183 kts | 42° |
| 2026-05-04 21:11 | 42.43801 | 27.34052 | 3321 ft | 178 kts | 43° |
| 2026-05-04 21:11 | 42.44648 | 27.35169 | 3164 ft | 159 kts | 43° |
| 2026-05-04 21:11 | 42.45396 | 27.36160 | 3029 ft | 142 kts | 44° |
| 2026-05-04 21:12 | 42.46053 | 27.37031 | 2872 ft | 127 kts | 44° |
| 2026-05-04 21:12 | 42.46678 | 27.37859 | 2714 ft | 128 kts | 44° |
| 2026-05-04 21:12 | 42.47325 | 27.38712 | 2475 ft | 128 kts | 44° |
| 2026-05-04 21:12 | 42.47964 | 27.39548 | 2189 ft | 128 kts | 44° |
| 2026-05-04 21:13 | 42.48606 | 27.40382 | 1954 ft | 128 kts | 44° |
| 2026-05-04 21:13 | 42.49246 | 27.41211 | 1713 ft | 128 kts | 44° |
| 2026-05-04 21:13 | 42.49887 | 27.42042 | 1549 ft | 128 kts | 45° |
| 2026-05-04 21:13 | 42.50516 | 27.42901 | 1449 ft | 129 kts | 45° |
| 2026-05-04 21:14 | 42.51148 | 27.43764 | 1345 ft | 129 kts | 45° |
| 2026-05-04 21:14 | 42.51771 | 27.44621 | 1200 ft | 130 kts | 45° |
| 2026-05-04 21:14 | 42.52423 | 27.45483 | 1022 ft | 131 kts | 42° |
| 2026-05-04 21:14 | 42.53090 | 27.46332 | 839 ft | 132 kts | 44° |
| 2026-05-04 21:15 | 42.53737 | 27.47214 | 642 ft | 131 kts | 43° |
| 2026-05-04 21:15 | 42.54388 | 27.48063 | 461 ft | 132 kts | 42° |
| 2026-05-04 21:15 | 42.55052 | 27.48926 | 367 ft | 133 kts | 42° |
| 2026-05-04 21:15 | 42.55704 | 27.49811 | 240 ft | 133 kts | 43° |
| 2026-05-04 21:16 | 42.56361 | 27.50655 | 131 ft | 114 kts | 44° |
| 2026-05-04 21:16 | 42.56718 | 27.51129 | 134 ft | 41 kts | 45° |
| 2026-05-04 21:16 | 42.56869 | 27.51340 | 138 ft | 22 kts | 60° |
| 2026-05-04 21:16 | 42.56831 | 27.51491 | 139 ft | 18 kts | 128° |
| 2026-05-04 21:17 | 42.56804 | 27.51601 | 139 ft | 11 kts | 98° |
| 2026-05-04 21:17 | 42.56790 | 27.51700 | 140 ft | 10 kts | 102° |
| 2026-05-04 21:17 | 42.56777 | 27.51811 | 140 ft | 14 kts | 93° |
| 2026-05-04 21:17 | 42.56776 | 27.51863 | 141 ft | 0 kts | 91° |